createdAt,value
2023-01-13T00:00:16.517Z,20.13
2023-01-13T00:02:43.623Z,19.45
2023-01-13T00:05:11.073Z,19.00
2023-01-13T00:07:40.282Z,18.08
2023-01-13T00:10:11.250Z,18.52
2023-01-13T00:12:42.392Z,17.13
2023-01-13T00:15:10.692Z,17.85
2023-01-13T00:17:38.999Z,17.80
2023-01-13T00:20:07.261Z,17.00
2023-01-13T00:22:35.475Z,16.95
2023-01-13T00:25:04.501Z,16.67
2023-01-13T00:27:31.750Z,17.33
2023-01-13T00:29:59.635Z,17.13
2023-01-13T00:32:27.328Z,17.05
2023-01-13T00:34:54.460Z,18.13
2023-01-13T00:37:21.909Z,17.33
2023-01-13T00:39:48.844Z,18.73
2023-01-13T00:42:35.925Z,18.95
2023-01-13T00:45:03.024Z,18.45
2023-01-13T00:47:30.171Z,18.40
2023-01-13T00:49:57.037Z,18.25
2023-01-13T00:52:23.948Z,18.90
2023-01-13T00:54:50.790Z,19.80
2023-01-13T00:57:18.878Z,17.90
2023-01-13T00:59:46.185Z,17.20
2023-01-13T01:02:13.510Z,18.73
2023-01-13T01:04:40.527Z,17.40
2023-01-13T01:07:07.361Z,18.17
2023-01-13T01:09:34.775Z,19.27
2023-01-13T01:12:01.920Z,18.40
2023-01-13T01:14:29.057Z,17.30
2023-01-13T01:16:55.931Z,18.45
2023-01-13T01:19:22.895Z,18.70
2023-01-13T01:21:49.785Z,19.10
2023-01-13T01:24:16.837Z,19.00
2023-01-13T01:26:43.812Z,18.55
2023-01-13T01:29:14.663Z,20.07
2023-01-13T01:31:41.866Z,19.50
2023-01-13T01:34:08.904Z,18.57
2023-01-13T01:36:36.717Z,19.57
2023-01-13T01:39:04.785Z,18.77
2023-01-13T01:41:33.888Z,18.97
2023-01-13T01:44:39.448Z,19.05
2023-01-13T01:47:06.381Z,19.23
2023-01-13T01:49:35.471Z,17.38
2023-01-13T01:52:17.571Z,18.90
2023-01-13T01:54:55.112Z,21.00
2023-01-13T01:57:49.130Z,20.00
2023-01-13T02:00:16.319Z,20.15
2023-01-13T02:02:46.460Z,19.48
2023-01-13T02:05:14.092Z,20.90
2023-01-13T02:07:43.644Z,21.10
2023-01-13T02:10:13.941Z,20.88
2023-01-13T02:12:43.439Z,20.08
2023-01-13T02:15:10.480Z,20.85
2023-01-13T02:18:03.885Z,20.70
2023-01-13T02:21:07.931Z,20.60
2023-01-13T02:24:14.640Z,20.50
2023-01-13T02:27:00.161Z,18.38
2023-01-13T02:30:11.441Z,20.67
2023-01-13T02:32:44.196Z,19.83
2023-01-13T02:35:24.474Z,19.25
2023-01-13T02:37:53.492Z,21.40
2023-01-13T02:40:24.580Z,22.20
2023-01-13T02:43:33.164Z,25.30
2023-01-13T02:46:15.587Z,25.80
2023-01-13T02:48:45.941Z,24.95
2023-01-13T02:51:20.114Z,27.10
2023-01-13T02:54:06.698Z,25.00
2023-01-13T02:56:39.541Z,24.55
2023-01-13T02:59:06.936Z,24.17
2023-01-13T03:01:33.865Z,23.83
2023-01-13T03:04:12.229Z,23.25
2023-01-13T03:06:49.161Z,22.60
2023-01-13T03:09:38.534Z,23.42
2023-01-13T03:12:34.868Z,22.33
2023-01-13T03:15:17.436Z,21.95
2023-01-13T03:18:12.446Z,21.98
2023-01-13T03:20:47.855Z,21.03
2023-01-13T03:23:59.971Z,19.73
2023-01-13T03:26:36.902Z,22.33
2023-01-13T03:29:18.138Z,22.33
2023-01-13T03:31:55.197Z,24.10
2023-01-13T03:34:29.694Z,21.27
2023-01-13T03:37:02.325Z,22.80
2023-01-13T03:39:35.011Z,29.50
2023-01-13T03:42:07.934Z,25.63
2023-01-13T03:44:52.497Z,24.20
2023-01-13T03:47:44.823Z,22.97
2023-01-13T03:50:20.560Z,22.40
2023-01-13T03:52:55.454Z,22.90
2023-01-13T03:55:27.830Z,22.03
2023-01-13T03:58:15.246Z,23.17
2023-01-13T04:01:05.543Z,21.90
2023-01-13T04:03:55.493Z,23.87
2023-01-13T04:06:44.614Z,24.20
2023-01-13T04:09:33.502Z,25.20
2023-01-13T04:12:12.196Z,25.53
2023-01-13T04:14:39.526Z,26.17
2023-01-13T04:17:06.406Z,27.13
2023-01-13T04:19:33.239Z,26.87
2023-01-13T04:22:00.168Z,27.63
2023-01-13T04:24:27.054Z,26.97
2023-01-13T04:26:54.045Z,26.00
2023-01-13T04:29:22.953Z,26.93
2023-01-13T04:31:49.780Z,27.93
2023-01-13T04:34:16.678Z,27.00
2023-01-13T04:36:45.046Z,27.42
2023-01-13T04:39:11.949Z,27.53
2023-01-13T04:41:57.139Z,26.35
2023-01-13T04:44:24.283Z,26.33
2023-01-13T04:46:51.448Z,26.42
2023-01-13T04:51:45.540Z,25.43
2023-01-13T04:54:12.453Z,26.60
2023-01-13T04:56:39.595Z,27.63
2023-01-13T04:59:06.768Z,27.30
2023-01-13T05:01:34.258Z,26.67
2023-01-13T05:04:01.177Z,28.43
2023-01-13T05:06:28.623Z,28.40
2023-01-13T05:08:55.461Z,28.33
2023-01-13T05:11:41.734Z,27.50
2023-01-13T05:14:27.729Z,27.00
2023-01-13T05:17:03.766Z,27.23
2023-01-13T05:19:34.105Z,26.92
2023-01-13T05:22:21.049Z,24.60
2023-01-13T05:25:06.852Z,26.45
2023-01-13T05:27:35.227Z,29.45
2023-01-13T05:30:02.041Z,32.80
2023-01-13T05:32:29.367Z,32.87
2023-01-13T05:34:57.013Z,29.38
2023-01-13T05:37:24.594Z,30.00
2023-01-13T05:40:10.431Z,30.50
2023-01-13T05:42:56.373Z,30.03
2023-01-13T05:45:24.571Z,28.67
2023-01-13T05:47:51.451Z,29.75
2023-01-13T05:50:19.047Z,29.83
2023-01-13T05:52:46.135Z,31.73
2023-01-13T05:55:13.388Z,32.85
2023-01-13T05:57:40.551Z,34.35
2023-01-13T06:00:08.160Z,31.70
2023-01-13T06:02:41.329Z,32.70
2023-01-13T06:05:08.751Z,30.60
2023-01-13T06:07:35.715Z,31.53
2023-01-13T06:10:02.516Z,31.47
2023-01-13T06:12:29.363Z,31.63
2023-01-13T06:14:56.799Z,30.57
2023-01-13T06:17:23.769Z,28.07
2023-01-13T06:19:51.247Z,31.43
2023-01-13T06:22:23.903Z,31.30
2023-01-13T06:24:53.745Z,32.87
2023-01-13T06:27:22.087Z,32.13
2023-01-13T06:29:49.723Z,33.93
2023-01-13T06:32:21.313Z,35.07
2023-01-13T06:34:55.106Z,35.20
2023-01-13T06:37:25.512Z,36.70
2023-01-13T06:39:58.832Z,35.20
2023-01-13T06:42:50.794Z,33.97
2023-01-13T06:45:18.743Z,35.10
2023-01-13T06:47:45.617Z,37.83
2023-01-13T06:50:13.143Z,39.13
2023-01-13T06:52:39.977Z,42.90
2023-01-13T06:55:07.246Z,45.00
2023-01-13T06:57:34.130Z,44.07
2023-01-13T07:00:01.061Z,44.23
2023-01-13T07:02:28.419Z,42.00
2023-01-13T07:04:55.433Z,40.10
2023-01-13T07:07:23.559Z,36.73
2023-01-13T07:09:50.401Z,34.13
2023-01-13T07:12:17.494Z,36.93
2023-01-13T07:15:03.761Z,36.63
2023-01-13T07:17:31.107Z,43.55
2023-01-13T07:19:58.128Z,44.92
2023-01-13T07:22:25.271Z,42.27
2023-01-13T07:24:52.209Z,45.50
2023-01-13T07:27:19.047Z,36.80
2023-01-13T07:29:45.886Z,34.78
2023-01-13T07:32:12.783Z,33.33
2023-01-13T07:34:39.647Z,28.25
2023-01-13T07:37:06.590Z,28.48
2023-01-13T07:39:33.419Z,28.77
2023-01-13T07:42:19.123Z,29.48
2023-01-13T07:44:45.994Z,25.90
2023-01-13T07:47:12.897Z,28.05
2023-01-13T07:49:39.905Z,30.00
2023-01-13T07:52:06.864Z,30.83
2023-01-13T07:54:40.649Z,30.70
2023-01-13T07:57:09.267Z,29.93
2023-01-13T07:59:36.276Z,23.42
2023-01-13T08:02:03.582Z,27.63
2023-01-13T08:04:30.514Z,25.95
2023-01-13T08:09:24.040Z,27.38
2023-01-13T08:12:14.447Z,29.73
2023-01-13T08:14:41.426Z,28.08
2023-01-13T08:17:09.369Z,26.58
2023-01-13T08:19:36.406Z,29.00
2023-01-13T08:22:03.344Z,25.90
2023-01-13T08:24:30.354Z,25.95
2023-01-13T08:26:57.216Z,25.27
2023-01-13T08:29:27.222Z,24.85
2023-01-13T08:31:54.214Z,27.00
2023-01-13T08:34:21.181Z,23.85
2023-01-13T08:36:50.007Z,25.60
2023-01-13T08:39:16.913Z,24.63
2023-01-13T08:41:56.371Z,25.77
2023-01-13T08:44:26.067Z,24.10
2023-01-13T08:46:53.645Z,26.85
2023-01-13T08:49:20.898Z,24.08
2023-01-13T08:51:48.284Z,25.73
2023-01-13T08:54:16.112Z,25.30
2023-01-13T08:56:44.333Z,27.13
2023-01-13T08:59:16.687Z,28.50
2023-01-13T09:01:44.261Z,24.67
2023-01-13T09:04:19.614Z,23.88
2023-01-13T09:06:47.749Z,23.63
2023-01-13T09:09:14.643Z,23.35
2023-01-13T09:12:06.140Z,25.38
2023-01-13T09:14:34.955Z,22.50
2023-01-13T09:17:02.333Z,23.27
2023-01-13T09:19:29.670Z,18.10
2023-01-13T09:21:57.533Z,16.15
2023-01-13T09:24:25.373Z,18.88
2023-01-13T09:26:53.239Z,20.67
2023-01-13T09:29:20.406Z,18.92
2023-01-13T09:31:47.567Z,17.90
2023-01-13T09:34:38.467Z,18.15
2023-01-13T09:37:07.307Z,16.95
2023-01-13T09:39:35.564Z,15.30
2023-01-13T09:42:43.232Z,14.32
2023-01-13T09:45:21.661Z,16.73
2023-01-13T09:47:57.815Z,15.90
2023-01-13T09:50:48.235Z,18.77
2023-01-13T09:53:21.714Z,17.85
2023-01-13T09:55:49.068Z,16.58
2023-01-13T09:58:18.594Z,19.08
2023-01-13T10:01:10.185Z,17.60
2023-01-13T10:03:37.125Z,16.67
2023-01-13T10:06:10.484Z,15.25
2023-01-13T10:08:42.993Z,16.13
2023-01-13T10:11:34.307Z,15.43
2023-01-13T10:14:15.930Z,16.20
2023-01-13T10:16:54.894Z,15.57
2023-01-13T10:19:27.710Z,13.93
2023-01-13T10:22:15.554Z,13.10
2023-01-13T10:27:34.593Z,16.45
2023-01-13T10:30:17.669Z,15.05
2023-01-13T10:32:54.037Z,11.18
2023-01-13T10:35:55.167Z,11.00
2023-01-13T10:38:44.099Z,14.23
2023-01-13T10:41:14.331Z,13.20
2023-01-13T10:44:04.664Z,11.52
2023-01-13T10:46:35.722Z,12.35
2023-01-13T10:49:21.174Z,12.77
2023-01-13T10:51:49.610Z,12.95
2023-01-13T10:54:22.667Z,12.00
2023-01-13T10:56:51.227Z,11.82
2023-01-13T10:59:22.921Z,12.02
2023-01-13T11:01:58.101Z,12.13
2023-01-13T11:04:37.789Z,11.93
2023-01-13T11:07:21.743Z,12.73
2023-01-13T11:09:48.883Z,17.27
2023-01-13T11:12:34.469Z,14.88
2023-01-13T11:15:09.000Z,15.20
2023-01-13T11:17:45.744Z,15.35
2023-01-13T11:20:17.568Z,14.48
2023-01-13T11:22:49.432Z,16.25
2023-01-13T11:25:44.715Z,17.02
2023-01-13T11:28:25.836Z,16.65
2023-01-13T11:31:05.752Z,16.02
2023-01-13T11:33:42.016Z,17.55
2023-01-13T11:36:16.369Z,16.00
2023-01-13T11:38:49.833Z,15.98
2023-01-13T11:41:41.336Z,16.63
2023-01-13T11:44:22.178Z,17.60
2023-01-13T11:46:52.359Z,18.20
2023-01-13T11:49:29.876Z,17.88
2023-01-13T11:52:19.235Z,19.75
2023-01-13T11:55:17.935Z,19.92
2023-01-13T11:57:50.944Z,20.92
2023-01-13T12:00:36.838Z,20.17
2023-01-13T12:03:23.342Z,19.65
2023-01-13T12:06:12.531Z,19.10
2023-01-13T12:08:57.984Z,16.92
2023-01-13T12:11:24.801Z,14.25
2023-01-13T12:14:24.710Z,14.18
2023-01-13T12:16:51.634Z,13.45
2023-01-13T12:19:49.270Z,14.45
2023-01-13T12:22:23.635Z,14.82
2023-01-13T12:25:29.392Z,14.82
2023-01-13T12:28:05.085Z,12.00
2023-01-13T12:30:45.707Z,12.75
2023-01-13T12:33:19.605Z,13.02
2023-01-13T12:35:59.485Z,12.23
2023-01-13T12:38:34.576Z,13.82
2023-01-13T12:41:38.849Z,14.57
2023-01-13T12:44:17.155Z,14.70
2023-01-13T12:46:59.000Z,15.75
2023-01-13T12:49:28.436Z,14.75
2023-01-13T12:51:55.255Z,12.95
2023-01-13T12:54:31.153Z,13.25
2023-01-13T12:56:59.209Z,15.05
2023-01-13T12:59:25.954Z,13.57
2023-01-13T13:04:52.019Z,13.23
2023-01-13T13:07:42.287Z,13.38
2023-01-13T13:10:16.489Z,13.45
2023-01-13T13:13:01.946Z,14.63
2023-01-13T13:15:35.469Z,14.73
2023-01-13T13:18:17.430Z,12.43
2023-01-13T13:20:58.049Z,14.45
2023-01-13T13:23:38.121Z,16.58
2023-01-13T13:26:17.184Z,12.43
2023-01-13T13:29:06.962Z,13.98
2023-01-13T13:31:58.612Z,12.15
2023-01-13T13:34:32.242Z,14.02
2023-01-13T13:37:05.115Z,13.50
2023-01-13T13:39:51.851Z,10.25
2023-01-13T13:42:48.424Z,11.52
2023-01-13T13:45:40.420Z,11.20
2023-01-13T13:48:23.294Z,12.80
2023-01-13T13:51:01.501Z,13.43
2023-01-13T13:53:32.544Z,14.57
2023-01-13T13:56:01.805Z,14.90
2023-01-13T13:58:31.439Z,14.75
2023-01-13T14:01:00.371Z,14.38
2023-01-13T14:03:30.393Z,14.32
2023-01-13T14:05:59.964Z,14.00
2023-01-13T14:08:37.994Z,14.93
2023-01-13T14:11:28.855Z,16.70
2023-01-13T14:14:07.163Z,17.52
2023-01-13T14:16:37.823Z,15.90
2023-01-13T14:19:04.691Z,15.25
2023-01-13T14:21:31.973Z,14.55
2023-01-13T14:24:16.865Z,16.63
2023-01-13T14:26:44.242Z,16.92
2023-01-13T14:29:18.055Z,21.15
2023-01-13T14:31:45.734Z,23.15
2023-01-13T14:34:32.113Z,21.25
2023-01-13T14:37:01.539Z,25.23
2023-01-13T14:39:41.241Z,28.70
2023-01-13T14:42:14.096Z,25.15
2023-01-13T14:44:45.759Z,26.52
2023-01-13T14:47:23.849Z,24.88
2023-01-13T14:50:04.616Z,22.95
2023-01-13T14:52:35.324Z,25.45
2023-01-13T14:55:11.293Z,25.70
2023-01-13T14:57:41.496Z,24.08
2023-01-13T15:00:14.735Z,24.27
2023-01-13T15:03:05.377Z,22.27
2023-01-13T15:05:36.393Z,23.95
2023-01-13T15:08:17.508Z,22.90
2023-01-13T15:11:00.959Z,23.73
2023-01-13T15:13:51.493Z,22.90
2023-01-13T15:16:25.967Z,23.98
2023-01-13T15:18:54.941Z,25.65
2023-01-13T15:21:21.973Z,27.98
2023-01-13T15:23:49.535Z,26.90
2023-01-13T15:26:26.724Z,27.02
2023-01-13T15:28:56.396Z,26.85
2023-01-13T15:31:25.000Z,26.77
2023-01-13T15:33:51.866Z,28.73
2023-01-13T15:36:23.935Z,22.70
2023-01-13T15:38:51.408Z,25.63
2023-01-13T15:41:38.355Z,25.58
2023-01-13T15:44:24.143Z,27.75
2023-01-13T15:46:52.122Z,25.08
2023-01-13T15:49:21.665Z,22.02
2023-01-13T15:51:49.547Z,20.67
2023-01-13T15:54:16.554Z,21.60
2023-01-13T15:56:43.579Z,21.70
2023-01-13T15:59:17.968Z,21.75
2023-01-13T16:01:48.185Z,22.52
2023-01-13T16:04:15.110Z,24.60
2023-01-13T16:06:42.968Z,26.20
2023-01-13T16:09:14.107Z,28.45
2023-01-13T16:11:41.394Z,27.75
2023-01-13T16:14:08.288Z,25.85
2023-01-13T16:16:36.640Z,25.20
2023-01-13T16:19:03.539Z,24.92
2023-01-13T16:21:30.531Z,28.58
2023-01-13T16:23:57.398Z,29.58
2023-01-13T16:26:30.055Z,27.90
2023-01-13T16:28:57.850Z,27.90
2023-01-13T16:31:32.100Z,28.63
2023-01-13T16:34:03.554Z,24.55
2023-01-13T16:36:33.502Z,26.00
2023-01-13T16:39:01.002Z,25.65
2023-01-13T16:41:28.050Z,26.77
2023-01-13T16:43:55.135Z,19.15
2023-01-13T16:46:27.411Z,26.30
2023-01-13T16:48:56.843Z,25.48
2023-01-13T16:51:24.881Z,28.85
2023-01-13T16:53:51.899Z,27.58
2023-01-13T16:56:23.917Z,26.83
2023-01-13T16:58:52.853Z,28.90
2023-01-13T17:01:28.677Z,28.58
2023-01-13T17:03:57.079Z,25.10
2023-01-13T17:06:41.770Z,27.02
2023-01-13T17:09:20.248Z,28.08
2023-01-13T17:11:47.164Z,27.52
2023-01-13T17:14:18.850Z,26.48
2023-01-13T17:16:47.763Z,24.13
2023-01-13T17:19:15.598Z,24.42
2023-01-13T17:21:42.474Z,25.13
2023-01-13T17:24:11.166Z,25.67
2023-01-13T17:26:42.253Z,26.58
2023-01-13T17:29:28.146Z,28.05
2023-01-13T17:31:55.379Z,27.27
2023-01-13T17:34:22.420Z,27.27
2023-01-13T17:36:50.540Z,28.27
2023-01-13T17:39:23.683Z,27.98
2023-01-13T17:41:52.130Z,28.27
2023-01-13T17:44:21.342Z,28.40
2023-01-13T17:46:49.020Z,28.92
2023-01-13T17:49:19.267Z,30.33
2023-01-13T17:51:48.337Z,28.10
2023-01-13T17:54:15.732Z,29.40
2023-01-13T17:56:44.363Z,28.70
2023-01-13T17:59:12.683Z,30.80
2023-01-13T18:01:40.821Z,33.45
2023-01-13T18:04:13.840Z,25.63
2023-01-13T18:06:41.599Z,37.80
2023-01-13T18:09:08.483Z,39.38
2023-01-13T18:11:35.497Z,39.30
2023-01-13T18:14:02.863Z,38.00
2023-01-13T18:16:32.181Z,40.10
2023-01-13T18:19:19.533Z,39.27
2023-01-13T18:22:06.480Z,30.02
2023-01-13T18:24:53.361Z,46.53
2023-01-13T18:27:27.657Z,49.30
2023-01-13T18:29:59.469Z,61.80
2023-01-13T18:32:32.766Z,65.20
2023-01-13T18:35:07.061Z,60.27
2023-01-13T18:37:42.422Z,66.43
2023-01-13T18:40:13.197Z,74.13
2023-01-13T18:42:55.208Z,69.30
2023-01-13T18:45:29.061Z,71.77
2023-01-13T18:47:59.652Z,62.90
2023-01-13T18:50:28.476Z,67.93
2023-01-13T18:52:58.753Z,65.13
2023-01-13T18:55:25.864Z,67.63
2023-01-13T18:57:53.652Z,70.53
2023-01-13T19:00:21.623Z,66.50
2023-01-13T19:02:50.907Z,72.57
2023-01-13T19:05:18.141Z,65.40
2023-01-13T19:07:50.578Z,60.23
2023-01-13T19:10:18.718Z,60.63
2023-01-13T19:12:45.791Z,53.17
2023-01-13T19:15:12.843Z,51.60
2023-01-13T19:17:39.785Z,51.63
2023-01-13T19:20:07.453Z,50.97
2023-01-13T19:22:35.302Z,48.47
2023-01-13T19:25:03.399Z,49.23
2023-01-13T19:27:31.411Z,51.70
2023-01-13T19:30:00.717Z,52.17
2023-01-13T19:32:30.969Z,49.73
2023-01-13T19:34:59.946Z,53.13
2023-01-13T19:37:31.623Z,53.47
2023-01-13T19:39:59.444Z,49.23
2023-01-13T19:42:45.681Z,59.07
2023-01-13T19:45:26.612Z,55.37
2023-01-13T19:47:55.554Z,61.43
2023-01-13T19:50:23.027Z,49.53
2023-01-13T19:52:49.968Z,50.20
2023-01-13T19:55:16.977Z,47.10
2023-01-13T19:57:43.842Z,45.43
2023-01-13T20:00:12.474Z,43.77
2023-01-13T20:02:44.949Z,46.53
2023-01-13T20:05:15.332Z,51.00
2023-01-13T20:07:42.181Z,58.20
2023-01-13T20:10:09.525Z,59.23
2023-01-13T20:12:36.775Z,57.43
2023-01-13T20:15:03.948Z,60.43
2023-01-13T20:17:30.856Z,59.13
2023-01-13T20:19:59.113Z,54.93
2023-01-13T20:22:25.936Z,53.37
2023-01-13T20:27:24.081Z,50.10
2023-01-13T20:29:51.547Z,53.17
2023-01-13T20:32:18.450Z,52.70
2023-01-13T20:34:45.395Z,52.13
2023-01-13T20:37:12.495Z,57.83
2023-01-13T20:39:41.401Z,61.20
2023-01-13T20:42:29.038Z,59.83
2023-01-13T20:44:57.156Z,66.80
2023-01-13T20:47:24.389Z,58.80
2023-01-13T20:49:51.866Z,59.10
2023-01-13T20:52:18.758Z,71.20
2023-01-13T20:54:45.856Z,69.33
2023-01-13T20:57:13.636Z,67.80
2023-01-13T20:59:40.761Z,67.63
2023-01-13T21:02:13.220Z,65.63
2023-01-13T21:04:40.582Z,67.10
2023-01-13T21:07:08.476Z,68.93
2023-01-13T21:09:35.790Z,72.30
2023-01-13T21:12:21.716Z,64.90
2023-01-13T21:15:07.315Z,64.80
2023-01-13T21:17:53.057Z,67.43
2023-01-13T21:20:20.233Z,65.33
2023-01-13T21:22:49.128Z,66.13
2023-01-13T21:25:17.493Z,67.17
2023-01-13T21:27:44.476Z,72.57
2023-01-13T21:30:14.979Z,79.23
2023-01-13T21:32:43.819Z,74.03
2023-01-13T21:35:11.915Z,71.60
2023-01-13T21:37:40.226Z,68.80
2023-01-13T21:40:10.256Z,69.30
2023-01-13T21:42:55.917Z,69.70
2023-01-13T21:45:41.303Z,67.23
2023-01-13T21:48:08.329Z,64.17
2023-01-13T21:50:38.178Z,67.90
2023-01-13T21:53:05.415Z,72.33
2023-01-13T21:55:32.957Z,68.20
2023-01-13T21:58:20.086Z,68.53
2023-01-13T22:00:49.309Z,70.38
2023-01-13T22:03:18.395Z,72.63
2023-01-13T22:05:46.294Z,87.50
2023-01-13T22:08:13.696Z,97.13
2023-01-13T22:10:59.575Z,100.67
2023-01-13T22:13:47.531Z,99.03
2023-01-13T22:16:14.932Z,97.97
2023-01-13T22:18:41.789Z,105.10
2023-01-13T22:21:08.796Z,95.10
2023-01-13T22:23:35.730Z,93.57
2023-01-13T22:26:03.929Z,89.07
2023-01-13T22:28:44.070Z,86.03
2023-01-13T22:31:13.745Z,81.40
2023-01-13T22:33:41.494Z,88.00
2023-01-13T22:36:09.919Z,87.63
2023-01-13T22:38:36.984Z,91.83
2023-01-13T22:41:09.113Z,86.47
2023-01-13T22:43:37.783Z,82.33
2023-01-13T22:46:08.650Z,53.47
2023-01-13T22:48:36.019Z,45.87
2023-01-13T22:51:11.389Z,49.90
2023-01-13T22:53:38.699Z,53.07
2023-01-13T22:56:06.652Z,59.80
2023-01-13T22:58:33.712Z,55.97
2023-01-13T23:01:12.007Z,63.03
2023-01-13T23:03:39.151Z,66.03
2023-01-13T23:06:06.567Z,63.90
2023-01-13T23:08:34.579Z,61.97
2023-01-13T23:11:10.002Z,66.27
2023-01-13T23:13:40.302Z,61.77
2023-01-13T23:16:10.092Z,66.33
2023-01-13T23:18:37.348Z,64.30
2023-01-13T23:21:06.530Z,63.77
2023-01-13T23:23:34.328Z,67.20
2023-01-13T23:26:01.611Z,57.87
2023-01-13T23:28:28.564Z,61.57
2023-01-13T23:30:55.549Z,61.70
2023-01-13T23:33:22.575Z,59.43
2023-01-13T23:36:00.800Z,52.87
2023-01-13T23:38:28.751Z,39.10
2023-01-13T23:40:56.391Z,44.00
2023-01-13T23:43:23.621Z,45.27
2023-01-13T23:45:50.558Z,46.53
2023-01-13T23:48:18.779Z,54.43
2023-01-13T23:50:56.787Z,50.50
2023-01-13T23:53:24.087Z,47.53
2023-01-13T23:55:57.272Z,50.07
2023-01-13T23:58:24.198Z,64.67
